sensor_id;sensor_type;location;lat;lon;timestamp;P1;durP1;ratioP1;P2;durP2;ratioP2
12892;SDS011;6514;48.606;9.222;2023-02-14T00:02:22;29.10;;;17.50;;
12892;SDS011;6514;48.606;9.222;2023-02-14T00:04:49;28.43;;;17.10;;
12892;SDS011;6514;48.606;9.222;2023-02-14T00:07:16;25.03;;;15.77;;
12892;SDS011;6514;48.606;9.222;2023-02-14T00:09:42;31.00;;;17.47;;
12892;SDS011;6514;48.606;9.222;2023-02-14T00:12:09;28.53;;;17.93;;
12892;SDS011;6514;48.606;9.222;2023-02-14T00:14:37;31.67;;;18.30;;
12892;SDS011;6514;48.606;9.222;2023-02-14T00:17:21;25.63;;;15.87;;
12892;SDS011;6514;48.606;9.222;2023-02-14T00:19:48;28.40;;;16.97;;
12892;SDS011;6514;48.606;9.222;2023-02-14T00:22:15;29.23;;;16.77;;
12892;SDS011;6514;48.606;9.222;2023-02-14T00:24:42;27.30;;;17.20;;
12892;SDS011;6514;48.606;9.222;2023-02-14T00:27:09;28.33;;;16.67;;
12892;SDS011;6514;48.606;9.222;2023-02-14T00:29:37;27.03;;;17.03;;
12892;SDS011;6514;48.606;9.222;2023-02-14T00:32:04;27.00;;;16.33;;
12892;SDS011;6514;48.606;9.222;2023-02-14T00:34:31;27.00;;;16.33;;
12892;SDS011;6514;48.606;9.222;2023-02-14T00:37:00;24.97;;;16.53;;
12892;SDS011;6514;48.606;9.222;2023-02-14T00:39:27;25.00;;;15.43;;
12892;SDS011;6514;48.606;9.222;2023-02-14T00:41:54;24.37;;;15.57;;
12892;SDS011;6514;48.606;9.222;2023-02-14T00:44:21;25.27;;;15.93;;
12892;SDS011;6514;48.606;9.222;2023-02-14T00:46:49;25.60;;;16.10;;
12892;SDS011;6514;48.606;9.222;2023-02-14T00:49:16;26.73;;;16.03;;
12892;SDS011;6514;48.606;9.222;2023-02-14T00:51:43;25.87;;;15.67;;
12892;SDS011;6514;48.606;9.222;2023-02-14T00:54:10;24.17;;;15.93;;
12892;SDS011;6514;48.606;9.222;2023-02-14T00:56:36;25.00;;;16.17;;
12892;SDS011;6514;48.606;9.222;2023-02-14T00:59:03;25.23;;;16.73;;
12892;SDS011;6514;48.606;9.222;2023-02-14T01:01:30;27.53;;;16.90;;
12892;SDS011;6514;48.606;9.222;2023-02-14T01:03:58;25.27;;;16.77;;
12892;SDS011;6514;48.606;9.222;2023-02-14T01:06:25;24.07;;;15.70;;
12892;SDS011;6514;48.606;9.222;2023-02-14T01:08:52;25.97;;;16.27;;
12892;SDS011;6514;48.606;9.222;2023-02-14T01:11:19;25.33;;;16.57;;
12892;SDS011;6514;48.606;9.222;2023-02-14T01:13:47;24.40;;;15.33;;
12892;SDS011;6514;48.606;9.222;2023-02-14T01:16:17;26.57;;;17.13;;
12892;SDS011;6514;48.606;9.222;2023-02-14T01:18:45;22.63;;;15.23;;
12892;SDS011;6514;48.606;9.222;2023-02-14T01:21:16;19.90;;;14.13;;
12892;SDS011;6514;48.606;9.222;2023-02-14T01:23:44;23.70;;;15.00;;
12892;SDS011;6514;48.606;9.222;2023-02-14T01:26:12;23.20;;;14.90;;
12892;SDS011;6514;48.606;9.222;2023-02-14T01:28:40;24.27;;;15.53;;
12892;SDS011;6514;48.606;9.222;2023-02-14T01:31:09;24.87;;;15.43;;
12892;SDS011;6514;48.606;9.222;2023-02-14T01:33:37;23.57;;;14.80;;
12892;SDS011;6514;48.606;9.222;2023-02-14T01:36:05;21.37;;;14.27;;
12892;SDS011;6514;48.606;9.222;2023-02-14T01:38:40;23.17;;;14.60;;
12892;SDS011;6514;48.606;9.222;2023-02-14T01:41:07;24.77;;;15.20;;
12892;SDS011;6514;48.606;9.222;2023-02-14T01:43:47;25.80;;;15.10;;
12892;SDS011;6514;48.606;9.222;2023-02-14T01:46:19;27.33;;;15.70;;
12892;SDS011;6514;48.606;9.222;2023-02-14T01:48:47;21.70;;;14.93;;
12892;SDS011;6514;48.606;9.222;2023-02-14T01:51:16;24.33;;;15.20;;
12892;SDS011;6514;48.606;9.222;2023-02-14T01:53:46;23.97;;;15.07;;
12892;SDS011;6514;48.606;9.222;2023-02-14T01:56:16;24.77;;;15.63;;
12892;SDS011;6514;48.606;9.222;2023-02-14T01:58:46;23.73;;;14.80;;
12892;SDS011;6514;48.606;9.222;2023-02-14T02:01:18;25.57;;;16.00;;
12892;SDS011;6514;48.606;9.222;2023-02-14T02:03:46;28.40;;;16.80;;
12892;SDS011;6514;48.606;9.222;2023-02-14T02:06:18;25.47;;;15.47;;
12892;SDS011;6514;48.606;9.222;2023-02-14T02:08:51;25.87;;;15.70;;
12892;SDS011;6514;48.606;9.222;2023-02-14T02:11:24;26.73;;;16.23;;
12892;SDS011;6514;48.606;9.222;2023-02-14T02:13:51;25.37;;;15.20;;
12892;SDS011;6514;48.606;9.222;2023-02-14T02:16:25;27.30;;;16.23;;
12892;SDS011;6514;48.606;9.222;2023-02-14T02:19:11;29.00;;;17.10;;
12892;SDS011;6514;48.606;9.222;2023-02-14T02:22:00;25.47;;;15.73;;
12892;SDS011;6514;48.606;9.222;2023-02-14T02:24:47;25.20;;;15.67;;
12892;SDS011;6514;48.606;9.222;2023-02-14T02:27:23;25.03;;;15.70;;
12892;SDS011;6514;48.606;9.222;2023-02-14T02:36:13;23.03;;;13.93;;
12892;SDS011;6514;48.606;9.222;2023-02-14T02:39:08;22.67;;;14.63;;
12892;SDS011;6514;48.606;9.222;2023-02-14T02:41:45;23.87;;;15.03;;
12892;SDS011;6514;48.606;9.222;2023-02-14T02:44:20;22.90;;;14.13;;
12892;SDS011;6514;48.606;9.222;2023-02-14T02:46:55;23.60;;;15.30;;
12892;SDS011;6514;48.606;9.222;2023-02-14T02:49:30;23.93;;;14.60;;
12892;SDS011;6514;48.606;9.222;2023-02-14T02:52:21;23.50;;;14.50;;
12892;SDS011;6514;48.606;9.222;2023-02-14T02:55:12;24.10;;;14.50;;
12892;SDS011;6514;48.606;9.222;2023-02-14T02:57:42;20.20;;;13.87;;
12892;SDS011;6514;48.606;9.222;2023-02-14T03:00:11;24.37;;;14.43;;
12892;SDS011;6514;48.606;9.222;2023-02-14T03:02:40;24.07;;;13.90;;
12892;SDS011;6514;48.606;9.222;2023-02-14T03:05:30;22.80;;;14.70;;
12892;SDS011;6514;48.606;9.222;2023-02-14T03:08:00;21.77;;;14.33;;
12892;SDS011;6514;48.606;9.222;2023-02-14T03:10:28;22.67;;;13.97;;
12892;SDS011;6514;48.606;9.222;2023-02-14T03:16:06;20.20;;;13.60;;
12892;SDS011;6514;48.606;9.222;2023-02-14T03:18:54;23.63;;;14.93;;
12892;SDS011;6514;48.606;9.222;2023-02-14T03:21:33;20.50;;;13.87;;
12892;SDS011;6514;48.606;9.222;2023-02-14T03:24:07;21.17;;;13.90;;
12892;SDS011;6514;48.606;9.222;2023-02-14T03:26:43;21.67;;;14.63;;
12892;SDS011;6514;48.606;9.222;2023-02-14T03:29:15;23.07;;;14.40;;
12892;SDS011;6514;48.606;9.222;2023-02-14T03:31:54;23.63;;;15.17;;
12892;SDS011;6514;48.606;9.222;2023-02-14T03:34:27;24.37;;;15.37;;
12892;SDS011;6514;48.606;9.222;2023-02-14T03:36:59;23.40;;;14.13;;
12892;SDS011;6514;48.606;9.222;2023-02-14T03:39:33;25.23;;;15.23;;
12892;SDS011;6514;48.606;9.222;2023-02-14T03:42:06;21.97;;;15.07;;
12892;SDS011;6514;48.606;9.222;2023-02-14T03:44:37;24.53;;;15.27;;
12892;SDS011;6514;48.606;9.222;2023-02-14T03:47:08;22.60;;;14.20;;
12892;SDS011;6514;48.606;9.222;2023-02-14T03:49:37;21.40;;;14.17;;
12892;SDS011;6514;48.606;9.222;2023-02-14T03:52:08;28.80;;;16.80;;
12892;SDS011;6514;48.606;9.222;2023-02-14T03:54:37;23.23;;;14.87;;
12892;SDS011;6514;48.606;9.222;2023-02-14T03:57:06;27.33;;;15.70;;
12892;SDS011;6514;48.606;9.222;2023-02-14T03:59:42;24.13;;;15.10;;
12892;SDS011;6514;48.606;9.222;2023-02-14T04:02:10;22.87;;;15.33;;
12892;SDS011;6514;48.606;9.222;2023-02-14T04:04:42;26.30;;;15.00;;
12892;SDS011;6514;48.606;9.222;2023-02-14T04:07:11;25.90;;;15.37;;
12892;SDS011;6514;48.606;9.222;2023-02-14T04:09:41;22.80;;;15.67;;
12892;SDS011;6514;48.606;9.222;2023-02-14T04:12:08;22.93;;;15.57;;
12892;SDS011;6514;48.606;9.222;2023-02-14T04:14:36;24.63;;;15.23;;
12892;SDS011;6514;48.606;9.222;2023-02-14T04:17:04;23.83;;;15.83;;
12892;SDS011;6514;48.606;9.222;2023-02-14T04:19:48;24.73;;;15.43;;
12892;SDS011;6514;48.606;9.222;2023-02-14T04:22:14;23.87;;;15.77;;
12892;SDS011;6514;48.606;9.222;2023-02-14T04:24:43;27.43;;;16.43;;
12892;SDS011;6514;48.606;9.222;2023-02-14T04:27:10;24.00;;;16.27;;
12892;SDS011;6514;48.606;9.222;2023-02-14T04:29:37;24.37;;;14.73;;
12892;SDS011;6514;48.606;9.222;2023-02-14T04:32:06;27.57;;;16.70;;
12892;SDS011;6514;48.606;9.222;2023-02-14T04:34:34;26.77;;;16.37;;
12892;SDS011;6514;48.606;9.222;2023-02-14T04:37:01;26.37;;;16.43;;
12892;SDS011;6514;48.606;9.222;2023-02-14T04:39:29;32.73;;;18.87;;
12892;SDS011;6514;48.606;9.222;2023-02-14T04:41:57;34.47;;;19.00;;
12892;SDS011;6514;48.606;9.222;2023-02-14T04:44:24;32.90;;;18.23;;
12892;SDS011;6514;48.606;9.222;2023-02-14T04:46:51;40.33;;;20.53;;
12892;SDS011;6514;48.606;9.222;2023-02-14T04:49:18;35.07;;;19.63;;
12892;SDS011;6514;48.606;9.222;2023-02-14T04:51:45;40.43;;;20.67;;
12892;SDS011;6514;48.606;9.222;2023-02-14T04:54:13;47.00;;;21.87;;
12892;SDS011;6514;48.606;9.222;2023-02-14T04:56:39;44.20;;;22.33;;
12892;SDS011;6514;48.606;9.222;2023-02-14T04:59:08;42.60;;;20.97;;
12892;SDS011;6514;48.606;9.222;2023-02-14T05:01:35;43.33;;;20.93;;
12892;SDS011;6514;48.606;9.222;2023-02-14T05:04:01;42.77;;;22.23;;
12892;SDS011;6514;48.606;9.222;2023-02-14T05:06:29;41.73;;;21.27;;
12892;SDS011;6514;48.606;9.222;2023-02-14T05:08:57;37.93;;;19.53;;
12892;SDS011;6514;48.606;9.222;2023-02-14T05:11:24;41.63;;;20.13;;
12892;SDS011;6514;48.606;9.222;2023-02-14T05:13:51;35.00;;;19.63;;
12892;SDS011;6514;48.606;9.222;2023-02-14T05:16:19;31.70;;;17.97;;
12892;SDS011;6514;48.606;9.222;2023-02-14T05:18:46;38.90;;;20.47;;
12892;SDS011;6514;48.606;9.222;2023-02-14T05:21:13;36.50;;;19.03;;
12892;SDS011;6514;48.606;9.222;2023-02-14T05:23:40;35.60;;;19.03;;
12892;SDS011;6514;48.606;9.222;2023-02-14T05:26:06;33.80;;;19.80;;
12892;SDS011;6514;48.606;9.222;2023-02-14T05:28:33;33.17;;;18.73;;
12892;SDS011;6514;48.606;9.222;2023-02-14T05:31:00;30.47;;;17.07;;
12892;SDS011;6514;48.606;9.222;2023-02-14T05:33:29;30.67;;;17.93;;
12892;SDS011;6514;48.606;9.222;2023-02-14T05:35:57;28.53;;;17.23;;
12892;SDS011;6514;48.606;9.222;2023-02-14T05:38:24;31.60;;;16.47;;
12892;SDS011;6514;48.606;9.222;2023-02-14T05:40:50;29.73;;;16.50;;
12892;SDS011;6514;48.606;9.222;2023-02-14T05:43:17;29.93;;;17.43;;
12892;SDS011;6514;48.606;9.222;2023-02-14T05:45:44;35.97;;;19.07;;
12892;SDS011;6514;48.606;9.222;2023-02-14T05:48:11;34.47;;;18.03;;
12892;SDS011;6514;48.606;9.222;2023-02-14T05:50:39;33.83;;;18.53;;
12892;SDS011;6514;48.606;9.222;2023-02-14T05:53:07;32.87;;;18.73;;
12892;SDS011;6514;48.606;9.222;2023-02-14T05:55:36;35.27;;;19.00;;
12892;SDS011;6514;48.606;9.222;2023-02-14T05:58:03;38.93;;;20.00;;
12892;SDS011;6514;48.606;9.222;2023-02-14T06:00:29;40.07;;;20.50;;
12892;SDS011;6514;48.606;9.222;2023-02-14T06:02:56;36.93;;;18.77;;
12892;SDS011;6514;48.606;9.222;2023-02-14T06:05:23;36.40;;;19.40;;
12892;SDS011;6514;48.606;9.222;2023-02-14T06:07:52;38.40;;;20.50;;
12892;SDS011;6514;48.606;9.222;2023-02-14T06:10:20;37.63;;;19.37;;
12892;SDS011;6514;48.606;9.222;2023-02-14T06:12:49;37.57;;;19.20;;
12892;SDS011;6514;48.606;9.222;2023-02-14T06:15:17;36.43;;;19.70;;
12892;SDS011;6514;48.606;9.222;2023-02-14T06:17:44;37.23;;;20.63;;
12892;SDS011;6514;48.606;9.222;2023-02-14T06:20:15;42.80;;;20.97;;
12892;SDS011;6514;48.606;9.222;2023-02-14T06:22:42;36.30;;;20.10;;
12892;SDS011;6514;48.606;9.222;2023-02-14T06:25:10;43.53;;;21.03;;
12892;SDS011;6514;48.606;9.222;2023-02-14T06:27:37;34.83;;;18.80;;
12892;SDS011;6514;48.606;9.222;2023-02-14T06:30:04;36.30;;;19.93;;
12892;SDS011;6514;48.606;9.222;2023-02-14T06:32:32;40.67;;;20.07;;
12892;SDS011;6514;48.606;9.222;2023-02-14T06:34:59;34.30;;;18.07;;
12892;SDS011;6514;48.606;9.222;2023-02-14T06:37:26;37.20;;;19.93;;
12892;SDS011;6514;48.606;9.222;2023-02-14T06:39:53;33.43;;;18.77;;
12892;SDS011;6514;48.606;9.222;2023-02-14T06:42:21;33.47;;;19.33;;
12892;SDS011;6514;48.606;9.222;2023-02-14T06:44:48;42.30;;;21.43;;
12892;SDS011;6514;48.606;9.222;2023-02-14T06:47:15;37.13;;;21.17;;
12892;SDS011;6514;48.606;9.222;2023-02-14T06:49:42;38.23;;;20.60;;
12892;SDS011;6514;48.606;9.222;2023-02-14T06:52:09;39.60;;;20.47;;
12892;SDS011;6514;48.606;9.222;2023-02-14T06:54:36;36.33;;;20.40;;
12892;SDS011;6514;48.606;9.222;2023-02-14T06:57:03;35.43;;;20.77;;
12892;SDS011;6514;48.606;9.222;2023-02-14T06:59:31;37.17;;;21.80;;
12892;SDS011;6514;48.606;9.222;2023-02-14T07:01:58;41.63;;;20.27;;
12892;SDS011;6514;48.606;9.222;2023-02-14T07:04:24;36.43;;;20.17;;
12892;SDS011;6514;48.606;9.222;2023-02-14T07:06:51;37.53;;;19.83;;
12892;SDS011;6514;48.606;9.222;2023-02-14T07:09:18;37.83;;;21.33;;
12892;SDS011;6514;48.606;9.222;2023-02-14T07:11:45;44.67;;;23.33;;
12892;SDS011;6514;48.606;9.222;2023-02-14T07:14:12;48.70;;;28.03;;
12892;SDS011;6514;48.606;9.222;2023-02-14T07:16:40;45.80;;;27.20;;
12892;SDS011;6514;48.606;9.222;2023-02-14T07:19:07;48.93;;;28.07;;
12892;SDS011;6514;48.606;9.222;2023-02-14T07:21:34;49.87;;;26.23;;
12892;SDS011;6514;48.606;9.222;2023-02-14T07:24:01;48.27;;;26.83;;
12892;SDS011;6514;48.606;9.222;2023-02-14T07:26:27;41.73;;;24.33;;
12892;SDS011;6514;48.606;9.222;2023-02-14T07:28:54;41.77;;;24.10;;
12892;SDS011;6514;48.606;9.222;2023-02-14T07:31:21;38.67;;;23.30;;
12892;SDS011;6514;48.606;9.222;2023-02-14T07:33:49;36.03;;;21.60;;
12892;SDS011;6514;48.606;9.222;2023-02-14T07:36:17;30.73;;;19.90;;
12892;SDS011;6514;48.606;9.222;2023-02-14T07:38:44;31.37;;;19.67;;
12892;SDS011;6514;48.606;9.222;2023-02-14T07:41:11;26.67;;;18.43;;
12892;SDS011;6514;48.606;9.222;2023-02-14T07:43:38;27.83;;;17.43;;
12892;SDS011;6514;48.606;9.222;2023-02-14T07:46:05;26.93;;;17.37;;
12892;SDS011;6514;48.606;9.222;2023-02-14T07:48:32;24.30;;;17.20;;
12892;SDS011;6514;48.606;9.222;2023-02-14T07:51:00;25.63;;;18.87;;
12892;SDS011;6514;48.606;9.222;2023-02-14T07:53:27;24.27;;;17.70;;
12892;SDS011;6514;48.606;9.222;2023-02-14T07:55:54;25.27;;;17.77;;
12892;SDS011;6514;48.606;9.222;2023-02-14T07:58:21;22.83;;;15.97;;
12892;SDS011;6514;48.606;9.222;2023-02-14T08:00:48;22.77;;;17.03;;
12892;SDS011;6514;48.606;9.222;2023-02-14T08:03:16;23.73;;;17.27;;
12892;SDS011;6514;48.606;9.222;2023-02-14T08:05:43;18.00;;;14.40;;
12892;SDS011;6514;48.606;9.222;2023-02-14T08:08:22;18.23;;;14.30;;
12892;SDS011;6514;48.606;9.222;2023-02-14T08:10:49;17.70;;;13.83;;
12892;SDS011;6514;48.606;9.222;2023-02-14T08:13:16;17.37;;;13.87;;
12892;SDS011;6514;48.606;9.222;2023-02-14T08:15:43;17.10;;;13.00;;
12892;SDS011;6514;48.606;9.222;2023-02-14T08:18:28;17.23;;;12.67;;
12892;SDS011;6514;48.606;9.222;2023-02-14T08:20:55;16.40;;;12.17;;
12892;SDS011;6514;48.606;9.222;2023-02-14T08:23:23;15.77;;;12.30;;
12892;SDS011;6514;48.606;9.222;2023-02-14T08:25:51;16.80;;;12.17;;
12892;SDS011;6514;48.606;9.222;2023-02-14T08:28:18;15.10;;;11.97;;
12892;SDS011;6514;48.606;9.222;2023-02-14T08:30:45;16.37;;;12.50;;
12892;SDS011;6514;48.606;9.222;2023-02-14T08:33:12;15.80;;;12.33;;
12892;SDS011;6514;48.606;9.222;2023-02-14T08:35:39;14.20;;;11.87;;
12892;SDS011;6514;48.606;9.222;2023-02-14T08:38:06;17.60;;;12.40;;
12892;SDS011;6514;48.606;9.222;2023-02-14T08:40:35;15.27;;;12.30;;
12892;SDS011;6514;48.606;9.222;2023-02-14T08:43:02;13.83;;;12.17;;
12892;SDS011;6514;48.606;9.222;2023-02-14T08:45:29;14.57;;;12.67;;
12892;SDS011;6514;48.606;9.222;2023-02-14T08:47:59;13.87;;;12.13;;
12892;SDS011;6514;48.606;9.222;2023-02-14T08:50:27;16.70;;;13.33;;
12892;SDS011;6514;48.606;9.222;2023-02-14T08:52:54;14.20;;;11.47;;
12892;SDS011;6514;48.606;9.222;2023-02-14T08:55:20;14.87;;;12.03;;
12892;SDS011;6514;48.606;9.222;2023-02-14T08:57:49;13.77;;;11.80;;
12892;SDS011;6514;48.606;9.222;2023-02-14T09:00:16;15.07;;;12.27;;
12892;SDS011;6514;48.606;9.222;2023-02-14T09:02:43;13.23;;;11.77;;
12892;SDS011;6514;48.606;9.222;2023-02-14T09:05:10;12.60;;;11.30;;
12892;SDS011;6514;48.606;9.222;2023-02-14T09:07:37;13.30;;;11.90;;
12892;SDS011;6514;48.606;9.222;2023-02-14T09:10:04;14.83;;;12.67;;
12892;SDS011;6514;48.606;9.222;2023-02-14T09:12:32;12.60;;;11.17;;
12892;SDS011;6514;48.606;9.222;2023-02-14T09:15:01;11.87;;;10.57;;
12892;SDS011;6514;48.606;9.222;2023-02-14T09:17:28;12.90;;;10.47;;
12892;SDS011;6514;48.606;9.222;2023-02-14T09:19:55;12.00;;;9.93;;
12892;SDS011;6514;48.606;9.222;2023-02-14T09:22:22;11.30;;;9.87;;
12892;SDS011;6514;48.606;9.222;2023-02-14T09:24:48;10.83;;;9.57;;
12892;SDS011;6514;48.606;9.222;2023-02-14T09:27:15;10.93;;;8.77;;
12892;SDS011;6514;48.606;9.222;2023-02-14T09:29:42;10.47;;;9.40;;
12892;SDS011;6514;48.606;9.222;2023-02-14T09:32:10;10.97;;;9.47;;
12892;SDS011;6514;48.606;9.222;2023-02-14T09:34:37;10.23;;;9.23;;
12892;SDS011;6514;48.606;9.222;2023-02-14T09:37:04;9.50;;;8.50;;
12892;SDS011;6514;48.606;9.222;2023-02-14T09:39:31;10.17;;;9.17;;
12892;SDS011;6514;48.606;9.222;2023-02-14T09:42:00;9.93;;;8.93;;
12892;SDS011;6514;48.606;9.222;2023-02-14T09:44:35;9.97;;;8.17;;
12892;SDS011;6514;48.606;9.222;2023-02-14T09:47:08;9.73;;;8.53;;
12892;SDS011;6514;48.606;9.222;2023-02-14T09:49:42;10.23;;;9.23;;
12892;SDS011;6514;48.606;9.222;2023-02-14T09:52:11;9.67;;;8.77;;
12892;SDS011;6514;48.606;9.222;2023-02-14T09:54:40;9.97;;;8.50;;
12892;SDS011;6514;48.606;9.222;2023-02-14T09:57:12;9.43;;;8.40;;
12892;SDS011;6514;48.606;9.222;2023-02-14T09:59:46;9.90;;;7.57;;
12892;SDS011;6514;48.606;9.222;2023-02-14T10:02:24;9.03;;;8.13;;
12892;SDS011;6514;48.606;9.222;2023-02-14T10:05:03;9.13;;;8.23;;
12892;SDS011;6514;48.606;9.222;2023-02-14T10:07:39;9.17;;;8.27;;
12892;SDS011;6514;48.606;9.222;2023-02-14T10:10:19;10.47;;;9.37;;
12892;SDS011;6514;48.606;9.222;2023-02-14T10:12:53;10.03;;;8.43;;
12892;SDS011;6514;48.606;9.222;2023-02-14T10:15:25;9.07;;;8.17;;
12892;SDS011;6514;48.606;9.222;2023-02-14T10:17:57;11.60;;;8.50;;
12892;SDS011;6514;48.606;9.222;2023-02-14T10:20:30;9.87;;;8.97;;
12892;SDS011;6514;48.606;9.222;2023-02-14T10:23:02;8.83;;;7.90;;
12892;SDS011;6514;48.606;9.222;2023-02-14T10:25:33;9.43;;;8.43;;
12892;SDS011;6514;48.606;9.222;2023-02-14T10:28:07;9.43;;;8.53;;
12892;SDS011;6514;48.606;9.222;2023-02-14T10:30:39;11.40;;;8.60;;
12892;SDS011;6514;48.606;9.222;2023-02-14T10:33:14;10.03;;;8.90;;
12892;SDS011;6514;48.606;9.222;2023-02-14T10:35:43;9.70;;;8.80;;
12892;SDS011;6514;48.606;9.222;2023-02-14T10:41:17;10.37;;;9.37;;
12892;SDS011;6514;48.606;9.222;2023-02-14T10:43:52;10.87;;;9.77;;
12892;SDS011;6514;48.606;9.222;2023-02-14T10:46:30;11.40;;;9.90;;
12892;SDS011;6514;48.606;9.222;2023-02-14T10:49:07;11.27;;;10.17;;
12892;SDS011;6514;48.606;9.222;2023-02-14T10:51:50;12.53;;;10.97;;
12892;SDS011;6514;48.606;9.222;2023-02-14T10:54:23;10.93;;;9.83;;
12892;SDS011;6514;48.606;9.222;2023-02-14T10:56:53;11.70;;;10.27;;
12892;SDS011;6514;48.606;9.222;2023-02-14T10:59:26;11.73;;;10.53;;
12892;SDS011;6514;48.606;9.222;2023-02-14T11:01:59;11.97;;;10.77;;
12892;SDS011;6514;48.606;9.222;2023-02-14T11:04:28;12.43;;;11.27;;
12892;SDS011;6514;48.606;9.222;2023-02-14T11:06:56;11.87;;;10.67;;
12892;SDS011;6514;48.606;9.222;2023-02-14T11:09:23;12.43;;;11.17;;
12892;SDS011;6514;48.606;9.222;2023-02-14T11:11:50;11.97;;;10.87;;
12892;SDS011;6514;48.606;9.222;2023-02-14T11:14:23;11.97;;;10.87;;
12892;SDS011;6514;48.606;9.222;2023-02-14T11:16:53;12.40;;;11.10;;
12892;SDS011;6514;48.606;9.222;2023-02-14T11:19:21;12.73;;;11.37;;
12892;SDS011;6514;48.606;9.222;2023-02-14T11:21:52;12.03;;;10.83;;
12892;SDS011;6514;48.606;9.222;2023-02-14T11:24:24;13.23;;;11.90;;
12892;SDS011;6514;48.606;9.222;2023-02-14T11:26:53;12.73;;;11.43;;
12892;SDS011;6514;48.606;9.222;2023-02-14T11:29:25;12.73;;;11.37;;
12892;SDS011;6514;48.606;9.222;2023-02-14T11:31:54;12.60;;;11.40;;
12892;SDS011;6514;48.606;9.222;2023-02-14T11:34:23;11.30;;;10.20;;
12892;SDS011;6514;48.606;9.222;2023-02-14T11:36:58;11.87;;;10.10;;
12892;SDS011;6514;48.606;9.222;2023-02-14T11:39:27;12.87;;;11.20;;
12892;SDS011;6514;48.606;9.222;2023-02-14T11:41:57;12.03;;;10.87;;
12892;SDS011;6514;48.606;9.222;2023-02-14T11:44:26;11.37;;;10.17;;
12892;SDS011;6514;48.606;9.222;2023-02-14T11:46:54;12.50;;;11.30;;
12892;SDS011;6514;48.606;9.222;2023-02-14T11:49:27;13.07;;;11.63;;
12892;SDS011;6514;48.606;9.222;2023-02-14T11:51:56;13.17;;;11.87;;
12892;SDS011;6514;48.606;9.222;2023-02-14T11:54:29;12.47;;;11.27;;
12892;SDS011;6514;48.606;9.222;2023-02-14T11:57:01;12.27;;;11.07;;
12892;SDS011;6514;48.606;9.222;2023-02-14T11:59:30;13.07;;;11.87;;
12892;SDS011;6514;48.606;9.222;2023-02-14T12:02:01;13.67;;;12.37;;
12892;SDS011;6514;48.606;9.222;2023-02-14T12:04:38;14.83;;;13.23;;
12892;SDS011;6514;48.606;9.222;2023-02-14T12:07:13;15.13;;;13.63;;
12892;SDS011;6514;48.606;9.222;2023-02-14T12:09:44;14.67;;;13.13;;
12892;SDS011;6514;48.606;9.222;2023-02-14T12:12:15;14.57;;;12.93;;
12892;SDS011;6514;48.606;9.222;2023-02-14T12:14:44;14.07;;;12.20;;
12892;SDS011;6514;48.606;9.222;2023-02-14T12:17:15;14.00;;;12.40;;
12892;SDS011;6514;48.606;9.222;2023-02-14T12:19:50;13.27;;;11.87;;
12892;SDS011;6514;48.606;9.222;2023-02-14T12:22:23;15.23;;;12.63;;
12892;SDS011;6514;48.606;9.222;2023-02-14T12:24:57;19.77;;;16.43;;
12892;SDS011;6514;48.606;9.222;2023-02-14T12:27:29;15.73;;;13.17;;
12892;SDS011;6514;48.606;9.222;2023-02-14T12:29:59;14.93;;;13.53;;
12892;SDS011;6514;48.606;9.222;2023-02-14T12:32:32;15.33;;;13.83;;
12892;SDS011;6514;48.606;9.222;2023-02-14T12:35:00;15.13;;;12.93;;
12892;SDS011;6514;48.606;9.222;2023-02-14T12:37:43;15.80;;;14.20;;
12892;SDS011;6514;48.606;9.222;2023-02-14T12:40:20;15.30;;;13.70;;
12892;SDS011;6514;48.606;9.222;2023-02-14T12:42:56;14.63;;;13.13;;
12892;SDS011;6514;48.606;9.222;2023-02-14T12:45:41;15.37;;;13.53;;
12892;SDS011;6514;48.606;9.222;2023-02-14T12:48:21;14.20;;;12.63;;
12892;SDS011;6514;48.606;9.222;2023-02-14T12:50:55;14.70;;;11.87;;
12892;SDS011;6514;48.606;9.222;2023-02-14T12:53:35;13.37;;;12.03;;
12892;SDS011;6514;48.606;9.222;2023-02-14T12:56:18;12.43;;;11.13;;
12892;SDS011;6514;48.606;9.222;2023-02-14T12:59:00;13.03;;;11.73;;
12892;SDS011;6514;48.606;9.222;2023-02-14T13:01:42;13.10;;;11.70;;
12892;SDS011;6514;48.606;9.222;2023-02-14T13:10:14;13.40;;;11.80;;
12892;SDS011;6514;48.606;9.222;2023-02-14T13:12:50;12.00;;;10.73;;
12892;SDS011;6514;48.606;9.222;2023-02-14T13:15:33;13.57;;;12.17;;
12892;SDS011;6514;48.606;9.222;2023-02-14T13:18:07;13.50;;;11.43;;
12892;SDS011;6514;48.606;9.222;2023-02-14T13:20:44;12.13;;;10.83;;
12892;SDS011;6514;48.606;9.222;2023-02-14T13:23:17;12.90;;;11.57;;
12892;SDS011;6514;48.606;9.222;2023-02-14T13:25:53;12.87;;;11.10;;
12892;SDS011;6514;48.606;9.222;2023-02-14T13:28:24;14.70;;;12.70;;
12892;SDS011;6514;48.606;9.222;2023-02-14T13:30:54;13.70;;;12.30;;
12892;SDS011;6514;48.606;9.222;2023-02-14T13:33:24;14.93;;;12.57;;
12892;SDS011;6514;48.606;9.222;2023-02-14T13:35:54;15.17;;;13.03;;
12892;SDS011;6514;48.606;9.222;2023-02-14T13:38:24;14.97;;;13.37;;
12892;SDS011;6514;48.606;9.222;2023-02-14T13:40:56;14.20;;;12.20;;
12892;SDS011;6514;48.606;9.222;2023-02-14T13:46:17;16.57;;;13.03;;
12892;SDS011;6514;48.606;9.222;2023-02-14T13:48:56;14.80;;;13.13;;
12892;SDS011;6514;48.606;9.222;2023-02-14T13:51:45;13.40;;;12.00;;
12892;SDS011;6514;48.606;9.222;2023-02-14T13:57:30;13.20;;;11.80;;
12892;SDS011;6514;48.606;9.222;2023-02-14T14:02:49;13.90;;;11.80;;
12892;SDS011;6514;48.606;9.222;2023-02-14T14:08:35;14.67;;;12.67;;
12892;SDS011;6514;48.606;9.222;2023-02-14T14:11:10;15.60;;;12.47;;
12892;SDS011;6514;48.606;9.222;2023-02-14T14:14:01;12.53;;;11.20;;
12892;SDS011;6514;48.606;9.222;2023-02-14T14:16:30;14.93;;;11.47;;
12892;SDS011;6514;48.606;9.222;2023-02-14T14:18:59;12.30;;;9.87;;
12892;SDS011;6514;48.606;9.222;2023-02-14T14:21:29;11.13;;;9.37;;
12892;SDS011;6514;48.606;9.222;2023-02-14T14:24:02;12.60;;;10.37;;
12892;SDS011;6514;48.606;9.222;2023-02-14T14:26:40;11.20;;;9.90;;
12892;SDS011;6514;48.606;9.222;2023-02-14T14:29:11;12.67;;;10.37;;
12892;SDS011;6514;48.606;9.222;2023-02-14T14:31:44;13.43;;;10.70;;
12892;SDS011;6514;48.606;9.222;2023-02-14T14:34:14;12.97;;;9.80;;
12892;SDS011;6514;48.606;9.222;2023-02-14T14:36:43;12.70;;;10.13;;
12892;SDS011;6514;48.606;9.222;2023-02-14T14:39:10;11.87;;;10.57;;
12892;SDS011;6514;48.606;9.222;2023-02-14T14:41:37;12.83;;;11.00;;
12892;SDS011;6514;48.606;9.222;2023-02-14T14:44:05;12.37;;;11.07;;
12892;SDS011;6514;48.606;9.222;2023-02-14T14:46:34;12.93;;;10.50;;
12892;SDS011;6514;48.606;9.222;2023-02-14T14:49:02;12.43;;;10.53;;
12892;SDS011;6514;48.606;9.222;2023-02-14T14:51:31;13.27;;;10.20;;
12892;SDS011;6514;48.606;9.222;2023-02-14T14:54:01;11.80;;;10.60;;
12892;SDS011;6514;48.606;9.222;2023-02-14T14:56:30;12.60;;;10.63;;
12892;SDS011;6514;48.606;9.222;2023-02-14T14:59:14;13.27;;;10.93;;
12892;SDS011;6514;48.606;9.222;2023-02-14T15:01:43;12.60;;;11.10;;
12892;SDS011;6514;48.606;9.222;2023-02-14T15:04:13;13.80;;;10.77;;
12892;SDS011;6514;48.606;9.222;2023-02-14T15:06:43;12.90;;;11.13;;
12892;SDS011;6514;48.606;9.222;2023-02-14T15:09:11;12.80;;;10.77;;
12892;SDS011;6514;48.606;9.222;2023-02-14T15:11:39;12.50;;;10.00;;
12892;SDS011;6514;48.606;9.222;2023-02-14T15:14:25;12.27;;;10.00;;
12892;SDS011;6514;48.606;9.222;2023-02-14T15:16:56;10.77;;;9.37;;
12892;SDS011;6514;48.606;9.222;2023-02-14T15:19:26;14.40;;;10.43;;
12892;SDS011;6514;48.606;9.222;2023-02-14T15:21:58;13.20;;;10.93;;
12892;SDS011;6514;48.606;9.222;2023-02-14T15:24:26;12.37;;;10.43;;
12892;SDS011;6514;48.606;9.222;2023-02-14T15:26:54;11.73;;;9.47;;